EWG79E EDDS-LGTS
Flight info
| Callsign | EWG79E |
|---|---|
| Flight time | 2h 19m |
| Altitude | 38000 |
| Route | ABTAL4H ABTAL L173 RIXED Y161 MAH L173 OTT M867 RADIZ DCT LUPIX DCT KOTOR DCT NAVSU DCT GACMO DCT NIK DCT ENFAR DCT TALAS N130 ALIKO |
| Aircraft | A21N/M-SDE2E3FGHIJ1RWXY/LB1 |
Departure
| Time | 2026-05-06 11:03 |
|---|---|
| Airport | Stuttgart Airport (EDDS) |
Arrival
| Time | 2026-05-06 13:22 |
|---|---|
| Airport | Thessaloniki Macedonia International Airport (LGTS) |
| Time | Latitude | Longitude | Altitude | Speed | Heading |
|---|---|---|---|---|---|
| 2026-05-06 10:20 | 48.68883 | 9.19360 | 1310 ft | 0 kts | 344° |
| 2026-05-06 10:53 | 48.68871 | 9.19365 | 1310 ft | 2 kts | 344° |
| 2026-05-06 10:53 | 48.68857 | 9.19371 | 1310 ft | 2 kts | 344° |
| 2026-05-06 10:54 | 48.68842 | 9.19377 | 1309 ft | 2 kts | 1° |
| 2026-05-06 10:54 | 48.68827 | 9.19373 | 1309 ft | 2 kts | 18° |
| 2026-05-06 10:54 | 48.68813 | 9.19363 | 1309 ft | 2 kts | 37° |
| 2026-05-06 10:54 | 48.68803 | 9.19347 | 1309 ft | 2 kts | 55° |
| 2026-05-06 10:55 | 48.68796 | 9.19329 | 1310 ft | 0 kts | 71° |
| 2026-05-06 10:55 | 48.68795 | 9.19320 | 1310 ft | 1 kts | 74° |
| 2026-05-06 10:55 | 48.68794 | 9.19318 | 1310 ft | 0 kts | 74° |
| 2026-05-06 10:58 | 48.68798 | 9.19337 | 1310 ft | 4 kts | 73° |
| 2026-05-06 10:59 | 48.68811 | 9.19401 | 1308 ft | 8 kts | 73° |
| 2026-05-06 10:59 | 48.68832 | 9.19518 | 1306 ft | 14 kts | 74° |
| 2026-05-06 10:59 | 48.68859 | 9.19659 | 1302 ft | 15 kts | 73° |
| 2026-05-06 10:59 | 48.68887 | 9.19803 | 1298 ft | 12 kts | 79° |
| 2026-05-06 11:00 | 48.68832 | 9.19902 | 1294 ft | 14 kts | 154° |
| 2026-05-06 11:00 | 48.68745 | 9.19960 | 1292 ft | 10 kts | 161° |
| 2026-05-06 11:00 | 48.68714 | 9.19974 | 1291 ft | 4 kts | 164° |
| 2026-05-06 11:00 | 48.68682 | 9.19988 | 1291 ft | 2 kts | 164° |
| 2026-05-06 11:01 | 48.68681 | 9.19988 | 1291 ft | 0 kts | 165° |
| 2026-05-06 11:01 | 48.68679 | 9.19989 | 1291 ft | 1 kts | 165° |
| 2026-05-06 11:01 | 48.68638 | 9.20006 | 1290 ft | 10 kts | 164° |
| 2026-05-06 11:02 | 48.68586 | 9.20032 | 1289 ft | 3 kts | 133° |
| 2026-05-06 11:02 | 48.68590 | 9.20098 | 1287 ft | 8 kts | 75° |
| 2026-05-06 11:02 | 48.68633 | 9.20327 | 1281 ft | 56 kts | 75° |
| 2026-05-06 11:02 | 48.68820 | 9.21306 | 1255 ft | 133 kts | 75° |
| 2026-05-06 11:03 | 48.69135 | 9.22945 | 1382 ft | 179 kts | 73° |
| 2026-05-06 11:03 | 48.69455 | 9.24780 | 2028 ft | 186 kts | 75° |
| 2026-05-06 11:03 | 48.69775 | 9.26661 | 2841 ft | 188 kts | 74° |
| 2026-05-06 11:03 | 48.70111 | 9.28570 | 3552 ft | 192 kts | 72° |
| 2026-05-06 11:04 | 48.70508 | 9.30514 | 4076 ft | 202 kts | 70° |
| 2026-05-06 11:04 | 48.70973 | 9.32604 | 4560 ft | 216 kts | 70° |
| 2026-05-06 11:04 | 48.71445 | 9.34866 | 5009 ft | 233 kts | 73° |
| 2026-05-06 11:04 | 48.71895 | 9.37328 | 5354 ft | 256 kts | 74° |
| 2026-05-06 11:05 | 48.72386 | 9.40025 | 5855 ft | 274 kts | 74° |
| 2026-05-06 11:05 | 48.72903 | 9.42832 | 6597 ft | 281 kts | 75° |
| 2026-05-06 11:05 | 48.73433 | 9.45684 | 7449 ft | 284 kts | 75° |
| 2026-05-06 11:05 | 48.73970 | 9.48560 | 8252 ft | 288 kts | 75° |
| 2026-05-06 11:06 | 48.74508 | 9.51444 | 9021 ft | 292 kts | 75° |
| 2026-05-06 11:06 | 48.75069 | 9.54442 | 9796 ft | 296 kts | 76° |
| 2026-05-06 11:06 | 48.75634 | 9.57463 | 10454 ft | 305 kts | 76° |
| 2026-05-06 11:06 | 48.76219 | 9.60616 | 10873 ft | 321 kts | 76° |
| 2026-05-06 11:07 | 48.76835 | 9.63933 | 11220 ft | 339 kts | 76° |
| 2026-05-06 11:07 | 48.77486 | 9.67436 | 11569 ft | 355 kts | 77° |
| 2026-05-06 11:07 | 48.78162 | 9.71078 | 12158 ft | 364 kts | 76° |
| 2026-05-06 11:07 | 48.78850 | 9.74770 | 12882 ft | 367 kts | 77° |
| 2026-05-06 11:08 | 48.79543 | 9.78501 | 13594 ft | 371 kts | 77° |
| 2026-05-06 11:08 | 48.80241 | 9.82270 | 14290 ft | 375 kts | 77° |
| 2026-05-06 11:08 | 48.80944 | 9.86087 | 14973 ft | 378 kts | 77° |
| 2026-05-06 11:08 | 48.81648 | 9.89906 | 15610 ft | 382 kts | 77° |
| 2026-05-06 11:09 | 48.82365 | 9.93814 | 16251 ft | 386 kts | 77° |
| 2026-05-06 11:09 | 48.83089 | 9.97760 | 16874 ft | 390 kts | 77° |
| 2026-05-06 11:09 | 48.83808 | 10.01699 | 17469 ft | 394 kts | 78° |
| 2026-05-06 11:09 | 48.84537 | 10.05710 | 18067 ft | 398 kts | 78° |
| 2026-05-06 11:10 | 48.85053 | 10.09843 | 18655 ft | 398 kts | 87° |
| 2026-05-06 11:10 | 48.85157 | 10.14015 | 19213 ft | 398 kts | 95° |
| 2026-05-06 11:10 | 48.84906 | 10.18205 | 19787 ft | 400 kts | 100° |
| 2026-05-06 11:10 | 48.84555 | 10.22405 | 20329 ft | 403 kts | 101° |
| 2026-05-06 11:11 | 48.84190 | 10.26638 | 20862 ft | 407 kts | 101° |
| 2026-05-06 11:11 | 48.83830 | 10.30916 | 21370 ft | 412 kts | 101° |
| 2026-05-06 11:11 | 48.83469 | 10.35267 | 21893 ft | 415 kts | 101° |
| 2026-05-06 11:11 | 48.82851 | 10.39538 | 22347 ft | 413 kts | 116° |
| 2026-05-06 11:12 | 48.81421 | 10.43206 | 22864 ft | 408 kts | 129° |
| 2026-05-06 11:12 | 48.79802 | 10.46720 | 23373 ft | 411 kts | 128° |
| 2026-05-06 11:12 | 48.78149 | 10.50338 | 23839 ft | 415 kts | 129° |
| 2026-05-06 11:12 | 48.76514 | 10.53952 | 24286 ft | 418 kts | 129° |
| 2026-05-06 11:13 | 48.74877 | 10.57584 | 24704 ft | 421 kts | 129° |
| 2026-05-06 11:13 | 48.73221 | 10.61263 | 25127 ft | 424 kts | 129° |
| 2026-05-06 11:13 | 48.71560 | 10.64965 | 25541 ft | 427 kts | 129° |
| 2026-05-06 11:13 | 48.69894 | 10.68670 | 25948 ft | 429 kts | 129° |
| 2026-05-06 11:14 | 48.68193 | 10.72451 | 26338 ft | 432 kts | 129° |
| 2026-05-06 11:14 | 48.66504 | 10.76204 | 26723 ft | 434 kts | 130° |
| 2026-05-06 11:14 | 48.64805 | 10.79972 | 27094 ft | 435 kts | 130° |
| 2026-05-06 11:14 | 48.63096 | 10.83758 | 27445 ft | 438 kts | 130° |
| 2026-05-06 11:15 | 48.61382 | 10.87552 | 27785 ft | 440 kts | 131° |
| 2026-05-06 11:15 | 48.59656 | 10.91366 | 28104 ft | 442 kts | 131° |
| 2026-05-06 11:15 | 48.57936 | 10.95159 | 28424 ft | 444 kts | 131° |
| 2026-05-06 11:15 | 48.56187 | 10.99011 | 28718 ft | 446 kts | 131° |
| 2026-05-06 11:16 | 48.54425 | 11.02887 | 29020 ft | 448 kts | 131° |
| 2026-05-06 11:16 | 48.52674 | 11.06733 | 29281 ft | 450 kts | 131° |
| 2026-05-06 11:16 | 48.50899 | 11.10626 | 29510 ft | 454 kts | 131° |
| 2026-05-06 11:16 | 48.49094 | 11.14577 | 29797 ft | 455 kts | 131° |
| 2026-05-06 11:17 | 48.47308 | 11.18490 | 30174 ft | 454 kts | 131° |
| 2026-05-06 11:17 | 48.45520 | 11.22401 | 30583 ft | 453 kts | 132° |
| 2026-05-06 11:17 | 48.43753 | 11.26257 | 30913 ft | 452 kts | 131° |
| 2026-05-06 11:17 | 48.41958 | 11.30168 | 31220 ft | 452 kts | 132° |
| 2026-05-06 11:18 | 48.40186 | 11.34019 | 31493 ft | 453 kts | 132° |
| 2026-05-06 11:18 | 48.38403 | 11.37892 | 31788 ft | 453 kts | 132° |
| 2026-05-06 11:18 | 48.36612 | 11.41781 | 32085 ft | 452 kts | 132° |
| 2026-05-06 11:18 | 48.34803 | 11.45701 | 32343 ft | 453 kts | 132° |
| 2026-05-06 11:19 | 48.33011 | 11.49578 | 32589 ft | 454 kts | 132° |
| 2026-05-06 11:19 | 48.31212 | 11.53461 | 32862 ft | 453 kts | 132° |
| 2026-05-06 11:19 | 48.29421 | 11.57332 | 33175 ft | 452 kts | 132° |
| 2026-05-06 11:19 | 48.27632 | 11.61190 | 33452 ft | 451 kts | 132° |
| 2026-05-06 11:20 | 48.25833 | 11.65061 | 33681 ft | 452 kts | 133° |
| 2026-05-06 11:20 | 48.24039 | 11.68910 | 33878 ft | 452 kts | 133° |
| 2026-05-06 11:20 | 48.22230 | 11.72789 | 34079 ft | 453 kts | 133° |
| 2026-05-06 11:20 | 48.20406 | 11.76620 | 34305 ft | 450 kts | 135° |
| 2026-05-06 11:21 | 48.18459 | 11.80255 | 34522 ft | 447 kts | 139° |
| 2026-05-06 11:21 | 48.16412 | 11.83650 | 34680 ft | 443 kts | 142° |
| 2026-05-06 11:21 | 48.14218 | 11.86891 | 34869 ft | 439 kts | 145° |
| 2026-05-06 11:21 | 48.11990 | 11.89946 | 35047 ft | 438 kts | 145° |
| 2026-05-06 11:22 | 48.09750 | 11.93025 | 35192 ft | 439 kts | 145° |
| 2026-05-06 11:22 | 48.07501 | 11.96118 | 35342 ft | 439 kts | 145° |
| 2026-05-06 11:22 | 48.05257 | 11.99202 | 35488 ft | 439 kts | 144° |
| 2026-05-06 11:22 | 48.03038 | 12.02253 | 35615 ft | 440 kts | 144° |
| 2026-05-06 11:23 | 48.00793 | 12.05338 | 35763 ft | 440 kts | 144° |
| 2026-05-06 11:23 | 47.98523 | 12.08450 | 35904 ft | 440 kts | 144° |
| 2026-05-06 11:23 | 47.96289 | 12.11509 | 36027 ft | 439 kts | 144° |
| 2026-05-06 11:23 | 47.94046 | 12.14573 | 36177 ft | 438 kts | 145° |
| 2026-05-06 11:24 | 47.91747 | 12.17531 | 36334 ft | 435 kts | 146° |
| 2026-05-06 11:24 | 47.89456 | 12.20410 | 36476 ft | 435 kts | 146° |
| 2026-05-06 11:24 | 47.87117 | 12.23353 | 36592 ft | 436 kts | 146° |
| 2026-05-06 11:24 | 47.84806 | 12.26256 | 36720 ft | 436 kts | 146° |
| 2026-05-06 11:25 | 47.82474 | 12.29181 | 36887 ft | 436 kts | 146° |
| 2026-05-06 11:25 | 47.80167 | 12.32076 | 37045 ft | 436 kts | 146° |
| 2026-05-06 11:25 | 47.77854 | 12.34969 | 37179 ft | 437 kts | 146° |
| 2026-05-06 11:25 | 47.75528 | 12.37879 | 37290 ft | 437 kts | 146° |
| 2026-05-06 11:26 | 47.73198 | 12.40788 | 37376 ft | 439 kts | 146° |
| 2026-05-06 11:26 | 47.68510 | 12.46601 | 37593 ft | 439 kts | 146° |
| 2026-05-06 11:26 | 47.66185 | 12.49466 | 37694 ft | 440 kts | 146° |
| 2026-05-06 11:27 | 47.63850 | 12.52361 | 37815 ft | 441 kts | 145° |
| 2026-05-06 11:27 | 47.59361 | 12.58673 | 37850 ft | 448 kts | 141° |
| 2026-05-06 11:28 | 47.55023 | 12.65106 | 37846 ft | 448 kts | 141° |
| 2026-05-06 11:28 | 47.50537 | 12.71749 | 37882 ft | 448 kts | 141° |
| 2026-05-06 11:29 | 47.46159 | 12.78213 | 37880 ft | 449 kts | 141° |
| 2026-05-06 11:29 | 47.41749 | 12.84709 | 37876 ft | 449 kts | 141° |
| 2026-05-06 11:30 | 47.37338 | 12.91186 | 37885 ft | 450 kts | 141° |
| 2026-05-06 11:30 | 47.32883 | 12.97716 | 37890 ft | 450 kts | 141° |
| 2026-05-06 11:31 | 47.28467 | 13.04173 | 37890 ft | 450 kts | 141° |
| 2026-05-06 11:31 | 47.24028 | 13.10644 | 37901 ft | 452 kts | 142° |
| 2026-05-06 11:32 | 47.19554 | 13.17148 | 37895 ft | 451 kts | 141° |
| 2026-05-06 11:32 | 47.15084 | 13.23633 | 37891 ft | 452 kts | 141° |
| 2026-05-06 11:33 | 47.10624 | 13.30088 | 37894 ft | 452 kts | 141° |
| 2026-05-06 11:33 | 47.06148 | 13.36545 | 37899 ft | 453 kts | 141° |
| 2026-05-06 11:34 | 47.01663 | 13.43006 | 37903 ft | 452 kts | 141° |
| 2026-05-06 11:34 | 46.97184 | 13.49445 | 37898 ft | 454 kts | 141° |
| 2026-05-06 11:35 | 46.92682 | 13.55895 | 37903 ft | 453 kts | 141° |
| 2026-05-06 11:35 | 46.88155 | 13.62365 | 37907 ft | 453 kts | 142° |
| 2026-05-06 11:36 | 46.83646 | 13.68791 | 37910 ft | 453 kts | 142° |
| 2026-05-06 11:36 | 46.79122 | 13.75225 | 37924 ft | 452 kts | 142° |
| 2026-05-06 11:37 | 46.74610 | 13.81625 | 37918 ft | 453 kts | 142° |
| 2026-05-06 11:37 | 46.70100 | 13.88007 | 37925 ft | 453 kts | 142° |
| 2026-05-06 11:38 | 46.65569 | 13.94407 | 37918 ft | 452 kts | 142° |
| 2026-05-06 11:38 | 46.61060 | 14.00758 | 37917 ft | 451 kts | 142° |
| 2026-05-06 11:39 | 46.56574 | 14.07057 | 37915 ft | 452 kts | 142° |
| 2026-05-06 11:39 | 46.52071 | 14.13368 | 37921 ft | 452 kts | 142° |
| 2026-05-06 11:40 | 46.47548 | 14.19693 | 37928 ft | 452 kts | 142° |
| 2026-05-06 11:40 | 46.43017 | 14.26007 | 37925 ft | 453 kts | 142° |
| 2026-05-06 11:41 | 46.38485 | 14.32313 | 37931 ft | 453 kts | 142° |
| 2026-05-06 11:41 | 46.33961 | 14.38596 | 37934 ft | 452 kts | 142° |
| 2026-05-06 11:42 | 46.29424 | 14.44879 | 37928 ft | 453 kts | 142° |
| 2026-05-06 11:42 | 46.24868 | 14.51174 | 37922 ft | 453 kts | 142° |
| 2026-05-06 11:43 | 46.20336 | 14.57418 | 37923 ft | 453 kts | 141° |
| 2026-05-06 11:43 | 46.15774 | 14.63694 | 37923 ft | 452 kts | 141° |
| 2026-05-06 11:44 | 46.08916 | 14.73100 | 37926 ft | 453 kts | 142° |
| 2026-05-06 11:44 | 46.04341 | 14.79266 | 37928 ft | 452 kts | 143° |
| 2026-05-06 11:45 | 45.99707 | 14.85322 | 37921 ft | 452 kts | 143° |
| 2026-05-06 11:45 | 45.95071 | 14.91370 | 37926 ft | 452 kts | 143° |
| 2026-05-06 11:46 | 45.90416 | 14.97446 | 37928 ft | 452 kts | 143° |
| 2026-05-06 11:46 | 45.85842 | 15.03409 | 37946 ft | 451 kts | 143° |
| 2026-05-06 11:47 | 45.81210 | 15.09436 | 37936 ft | 451 kts | 143° |
| 2026-05-06 11:47 | 45.76548 | 15.15483 | 37952 ft | 451 kts | 143° |
| 2026-05-06 11:48 | 45.71913 | 15.21486 | 37952 ft | 452 kts | 143° |
| 2026-05-06 11:48 | 45.67263 | 15.27496 | 37966 ft | 451 kts | 143° |
| 2026-05-06 11:49 | 45.62609 | 15.33494 | 37952 ft | 451 kts | 143° |
| 2026-05-06 11:49 | 45.57983 | 15.39442 | 37960 ft | 450 kts | 143° |
| 2026-05-06 11:50 | 45.53331 | 15.45414 | 37956 ft | 450 kts | 143° |
| 2026-05-06 11:50 | 45.48667 | 15.51385 | 37949 ft | 450 kts | 143° |
| 2026-05-06 11:51 | 45.44044 | 15.57399 | 37941 ft | 452 kts | 140° |
| 2026-05-06 11:51 | 45.39714 | 15.63862 | 37943 ft | 453 kts | 137° |
| 2026-05-06 11:52 | 45.35446 | 15.70353 | 37938 ft | 453 kts | 139° |
| 2026-05-06 11:52 | 45.31172 | 15.76839 | 37940 ft | 451 kts | 138° |
| 2026-05-06 11:53 | 45.26867 | 15.83352 | 37939 ft | 452 kts | 139° |
| 2026-05-06 11:53 | 45.22557 | 15.89856 | 37936 ft | 452 kts | 138° |
| 2026-05-06 11:54 | 45.18267 | 15.96314 | 37943 ft | 453 kts | 139° |
| 2026-05-06 11:54 | 45.13956 | 16.02788 | 37941 ft | 453 kts | 138° |
| 2026-05-06 11:55 | 45.09600 | 16.09318 | 37944 ft | 453 kts | 138° |
| 2026-05-06 11:55 | 45.05275 | 16.15785 | 37946 ft | 452 kts | 138° |
| 2026-05-06 11:56 | 45.00968 | 16.22212 | 37947 ft | 452 kts | 138° |
| 2026-05-06 11:56 | 44.96646 | 16.28643 | 37946 ft | 452 kts | 138° |
| 2026-05-06 11:57 | 44.92348 | 16.35022 | 37945 ft | 452 kts | 138° |
| 2026-05-06 11:57 | 44.88074 | 16.41353 | 38185 ft | 453 kts | 138° |
| 2026-05-06 11:58 | 44.85899 | 16.44569 | 38025 ft | 451 kts | 138° |
| 2026-05-06 11:58 | 44.83752 | 16.47742 | 37987 ft | 452 kts | 138° |
| 2026-05-06 11:58 | 44.79410 | 16.54144 | 37969 ft | 452 kts | 138° |
| 2026-05-06 11:59 | 44.77232 | 16.57350 | 37776 ft | 452 kts | 138° |
| 2026-05-06 11:59 | 44.75070 | 16.60530 | 37920 ft | 452 kts | 138° |
| 2026-05-06 11:59 | 44.70683 | 16.66970 | 37967 ft | 454 kts | 139° |
| 2026-05-06 12:00 | 44.66335 | 16.73340 | 37975 ft | 453 kts | 139° |
| 2026-05-06 12:00 | 44.61963 | 16.79733 | 38140 ft | 454 kts | 139° |
| 2026-05-06 12:01 | 44.59779 | 16.82918 | 38037 ft | 452 kts | 139° |
| 2026-05-06 12:01 | 44.57627 | 16.86054 | 38006 ft | 452 kts | 139° |
| 2026-05-06 12:01 | 44.53127 | 16.92196 | 38032 ft | 450 kts | 143° |
| 2026-05-06 12:02 | 44.50758 | 16.95075 | 37880 ft | 448 kts | 144° |
| 2026-05-06 12:02 | 44.48405 | 16.97923 | 37973 ft | 450 kts | 143° |
| 2026-05-06 12:02 | 44.43677 | 17.03642 | 38185 ft | 451 kts | 143° |
| 2026-05-06 12:03 | 44.41325 | 17.06488 | 38066 ft | 450 kts | 143° |
| 2026-05-06 12:03 | 44.38968 | 17.09337 | 38048 ft | 450 kts | 143° |
| 2026-05-06 12:03 | 44.34221 | 17.15065 | 38046 ft | 450 kts | 143° |
| 2026-05-06 12:04 | 44.29491 | 17.20757 | 38049 ft | 451 kts | 143° |
| 2026-05-06 12:04 | 44.24741 | 17.26467 | 38048 ft | 451 kts | 143° |
| 2026-05-06 12:05 | 44.19989 | 17.32165 | 38054 ft | 451 kts | 143° |
| 2026-05-06 12:05 | 44.15252 | 17.37831 | 38068 ft | 452 kts | 143° |
| 2026-05-06 12:06 | 44.10472 | 17.43536 | 38051 ft | 452 kts | 143° |
| 2026-05-06 12:06 | 44.05715 | 17.49203 | 37879 ft | 451 kts | 143° |
| 2026-05-06 12:07 | 44.03336 | 17.52032 | 38010 ft | 452 kts | 143° |
| 2026-05-06 12:07 | 44.00962 | 17.54850 | 38048 ft | 453 kts | 143° |
| 2026-05-06 12:07 | 43.96170 | 17.60533 | 38054 ft | 453 kts | 143° |
| 2026-05-06 12:08 | 43.91356 | 17.66230 | 38056 ft | 454 kts | 143° |
| 2026-05-06 12:08 | 43.88946 | 17.69076 | 38199 ft | 454 kts | 143° |
| 2026-05-06 12:08 | 43.86542 | 17.71915 | 38098 ft | 453 kts | 143° |
| 2026-05-06 12:09 | 43.81760 | 17.77551 | 38058 ft | 453 kts | 143° |
| 2026-05-06 12:09 | 43.76957 | 17.83196 | 38057 ft | 453 kts | 143° |
| 2026-05-06 12:10 | 43.72184 | 17.88795 | 38048 ft | 452 kts | 143° |
| 2026-05-06 12:10 | 43.67382 | 17.94415 | 38049 ft | 453 kts | 143° |
| 2026-05-06 12:11 | 43.62573 | 18.00032 | 38055 ft | 453 kts | 143° |
| 2026-05-06 12:11 | 43.57765 | 18.05634 | 38065 ft | 454 kts | 143° |
| 2026-05-06 12:12 | 43.52956 | 18.11229 | 38059 ft | 454 kts | 143° |
| 2026-05-06 12:12 | 43.48124 | 18.16837 | 38070 ft | 454 kts | 143° |
| 2026-05-06 12:13 | 43.43299 | 18.22423 | 38068 ft | 454 kts | 143° |
| 2026-05-06 12:13 | 43.38491 | 18.27979 | 38062 ft | 454 kts | 143° |
| 2026-05-06 12:14 | 43.33662 | 18.33547 | 38075 ft | 454 kts | 143° |
| 2026-05-06 12:14 | 43.28831 | 18.39107 | 38083 ft | 454 kts | 143° |
| 2026-05-06 12:15 | 43.23988 | 18.44671 | 38091 ft | 455 kts | 143° |
| 2026-05-06 12:15 | 43.19120 | 18.50255 | 38100 ft | 455 kts | 143° |
| 2026-05-06 12:16 | 43.14275 | 18.55749 | 38099 ft | 454 kts | 144° |
| 2026-05-06 12:16 | 43.09212 | 18.60882 | 38102 ft | 453 kts | 147° |
| 2026-05-06 12:17 | 43.04135 | 18.65972 | 37848 ft | 452 kts | 147° |
| 2026-05-06 12:17 | 43.01578 | 18.68534 | 38126 ft | 452 kts | 147° |
| 2026-05-06 12:17 | 42.99029 | 18.71085 | 38117 ft | 452 kts | 147° |
| 2026-05-06 12:18 | 42.93972 | 18.76142 | 38121 ft | 453 kts | 147° |
| 2026-05-06 12:18 | 42.88901 | 18.81205 | 38112 ft | 453 kts | 147° |
| 2026-05-06 12:19 | 42.83834 | 18.86249 | 38091 ft | 453 kts | 147° |
| 2026-05-06 12:19 | 42.78876 | 18.91597 | 38115 ft | 457 kts | 141° |
| 2026-05-06 12:20 | 42.74363 | 18.97731 | 38111 ft | 460 kts | 134° |
| 2026-05-06 12:20 | 42.70272 | 19.04371 | 38114 ft | 460 kts | 132° |
| 2026-05-06 12:21 | 42.66217 | 19.11024 | 38155 ft | 459 kts | 132° |
| 2026-05-06 12:21 | 42.62130 | 19.17698 | 38016 ft | 459 kts | 132° |
| 2026-05-06 12:22 | 42.58049 | 19.24338 | 38104 ft | 462 kts | 132° |
| 2026-05-06 12:22 | 42.53941 | 19.31006 | 38102 ft | 462 kts | 132° |
| 2026-05-06 12:23 | 42.49822 | 19.37677 | 38335 ft | 464 kts | 132° |
| 2026-05-06 12:23 | 42.47762 | 19.41006 | 38180 ft | 463 kts | 132° |
| 2026-05-06 12:23 | 42.45701 | 19.44336 | 38143 ft | 463 kts | 132° |
| 2026-05-06 12:24 | 42.41564 | 19.51003 | 38129 ft | 462 kts | 132° |
| 2026-05-06 12:24 | 42.37415 | 19.57674 | 38013 ft | 462 kts | 132° |
| 2026-05-06 12:25 | 42.33284 | 19.64301 | 38109 ft | 466 kts | 132° |
| 2026-05-06 12:25 | 42.29062 | 19.71060 | 38105 ft | 466 kts | 133° |
| 2026-05-06 12:26 | 42.26990 | 19.74375 | 38329 ft | 467 kts | 133° |
| 2026-05-06 12:26 | 42.24896 | 19.77719 | 38167 ft | 466 kts | 133° |
| 2026-05-06 12:26 | 42.20731 | 19.84359 | 37965 ft | 464 kts | 133° |
| 2026-05-06 12:27 | 42.16552 | 19.91003 | 38075 ft | 466 kts | 133° |
| 2026-05-06 12:27 | 42.12351 | 19.97670 | 38078 ft | 467 kts | 133° |
| 2026-05-06 12:28 | 42.08172 | 20.04285 | 38082 ft | 468 kts | 133° |
| 2026-05-06 12:28 | 42.03946 | 20.10960 | 38296 ft | 469 kts | 133° |
| 2026-05-06 12:29 | 42.01850 | 20.14266 | 38153 ft | 467 kts | 133° |
| 2026-05-06 12:29 | 41.99728 | 20.17610 | 38114 ft | 467 kts | 133° |
| 2026-05-06 12:29 | 41.95527 | 20.24221 | 38098 ft | 468 kts | 132° |
| 2026-05-06 12:30 | 41.91948 | 20.31478 | 38100 ft | 471 kts | 120° |
| 2026-05-06 12:30 | 41.88785 | 20.39231 | 38100 ft | 471 kts | 120° |
| 2026-05-06 12:31 | 41.87213 | 20.43078 | 37921 ft | 473 kts | 120° |
| 2026-05-06 12:31 | 41.85639 | 20.46901 | 37179 ft | 474 kts | 120° |
| 2026-05-06 12:31 | 41.84032 | 20.50783 | 36428 ft | 473 kts | 120° |
| 2026-05-06 12:31 | 41.82452 | 20.54580 | 35691 ft | 473 kts | 120° |
| 2026-05-06 12:32 | 41.80851 | 20.58421 | 34954 ft | 473 kts | 120° |
| 2026-05-06 12:32 | 41.79248 | 20.62254 | 34228 ft | 472 kts | 120° |
| 2026-05-06 12:32 | 41.77649 | 20.66067 | 33527 ft | 472 kts | 121° |
| 2026-05-06 12:32 | 41.76040 | 20.69899 | 32830 ft | 471 kts | 121° |
| 2026-05-06 12:33 | 41.74430 | 20.73727 | 32138 ft | 472 kts | 121° |
| 2026-05-06 12:33 | 41.72836 | 20.77511 | 31457 ft | 473 kts | 120° |
| 2026-05-06 12:33 | 41.71225 | 20.81335 | 30774 ft | 474 kts | 120° |
| 2026-05-06 12:33 | 41.69606 | 20.85169 | 30094 ft | 476 kts | 120° |
| 2026-05-06 12:34 | 41.67980 | 20.89021 | 29419 ft | 477 kts | 120° |
| 2026-05-06 12:34 | 41.66355 | 20.92866 | 28755 ft | 477 kts | 120° |
| 2026-05-06 12:34 | 41.64746 | 20.96667 | 28099 ft | 474 kts | 120° |
| 2026-05-06 12:34 | 41.63119 | 21.00505 | 27434 ft | 472 kts | 120° |
| 2026-05-06 12:35 | 41.61518 | 21.04273 | 26782 ft | 469 kts | 120° |
| 2026-05-06 12:35 | 41.59904 | 21.08070 | 26118 ft | 467 kts | 120° |
| 2026-05-06 12:35 | 41.58322 | 21.11788 | 25469 ft | 464 kts | 120° |
| 2026-05-06 12:35 | 41.56737 | 21.15508 | 24816 ft | 462 kts | 120° |
| 2026-05-06 12:36 | 41.55160 | 21.19205 | 24151 ft | 460 kts | 120° |
| 2026-05-06 12:36 | 41.53567 | 21.22934 | 23480 ft | 458 kts | 120° |
| 2026-05-06 12:36 | 41.52004 | 21.26588 | 22842 ft | 456 kts | 120° |
| 2026-05-06 12:36 | 41.50439 | 21.30242 | 22217 ft | 454 kts | 120° |
| 2026-05-06 12:37 | 41.48896 | 21.33840 | 21597 ft | 451 kts | 119° |
| 2026-05-06 12:37 | 41.47324 | 21.37503 | 20964 ft | 447 kts | 119° |
| 2026-05-06 12:37 | 41.45803 | 21.41044 | 20337 ft | 439 kts | 119° |
| 2026-05-06 12:37 | 41.44304 | 21.44531 | 19717 ft | 430 kts | 119° |
| 2026-05-06 12:38 | 41.42832 | 21.47950 | 19096 ft | 421 kts | 119° |
| 2026-05-06 12:38 | 41.41396 | 21.51280 | 18476 ft | 413 kts | 119° |
| 2026-05-06 12:38 | 41.39978 | 21.54566 | 17845 ft | 405 kts | 119° |
| 2026-05-06 12:38 | 41.38590 | 21.57777 | 17228 ft | 398 kts | 119° |
| 2026-05-06 12:39 | 41.37233 | 21.60916 | 16615 ft | 391 kts | 119° |
| 2026-05-06 12:39 | 41.35894 | 21.64008 | 15999 ft | 386 kts | 119° |
| 2026-05-06 12:39 | 41.34582 | 21.67035 | 15397 ft | 382 kts | 120° |
| 2026-05-06 12:39 | 41.33235 | 21.70138 | 14782 ft | 378 kts | 120° |
| 2026-05-06 12:40 | 41.31931 | 21.73140 | 14291 ft | 375 kts | 120° |
| 2026-05-06 12:40 | 41.30618 | 21.76161 | 13797 ft | 373 kts | 120° |
| 2026-05-06 12:40 | 41.29331 | 21.79117 | 13309 ft | 370 kts | 120° |
| 2026-05-06 12:40 | 41.28048 | 21.82063 | 12817 ft | 367 kts | 120° |
| 2026-05-06 12:41 | 41.26787 | 21.84955 | 12327 ft | 365 kts | 120° |
| 2026-05-06 12:41 | 41.25522 | 21.87854 | 11832 ft | 362 kts | 120° |
| 2026-05-06 12:41 | 41.24266 | 21.90730 | 11338 ft | 359 kts | 120° |
| 2026-05-06 12:41 | 41.23012 | 21.93594 | 10837 ft | 357 kts | 120° |
| 2026-05-06 12:42 | 41.21782 | 21.96402 | 10354 ft | 354 kts | 120° |
| 2026-05-06 12:42 | 41.20558 | 21.99192 | 10079 ft | 343 kts | 120° |
| 2026-05-06 12:42 | 41.19376 | 22.01888 | 10066 ft | 326 kts | 120° |
| 2026-05-06 12:42 | 41.18271 | 22.04407 | 10073 ft | 309 kts | 120° |
| 2026-05-06 12:43 | 41.17229 | 22.06779 | 10077 ft | 296 kts | 120° |
| 2026-05-06 12:43 | 41.16185 | 22.09155 | 10083 ft | 295 kts | 121° |
| 2026-05-06 12:43 | 41.15149 | 22.11511 | 10086 ft | 295 kts | 120° |
| 2026-05-06 12:43 | 41.14124 | 22.13840 | 10090 ft | 295 kts | 121° |
| 2026-05-06 12:44 | 41.13083 | 22.16202 | 10096 ft | 295 kts | 121° |
| 2026-05-06 12:44 | 41.12056 | 22.18532 | 10098 ft | 295 kts | 121° |
| 2026-05-06 12:44 | 41.11016 | 22.20888 | 10104 ft | 295 kts | 121° |
| 2026-05-06 12:44 | 41.09980 | 22.23231 | 10111 ft | 295 kts | 121° |
| 2026-05-06 12:45 | 41.08946 | 22.25565 | 10106 ft | 294 kts | 121° |
| 2026-05-06 12:45 | 41.07917 | 22.27889 | 10093 ft | 294 kts | 121° |
| 2026-05-06 12:45 | 41.05843 | 22.32570 | 10083 ft | 294 kts | 120° |
| 2026-05-06 12:46 | 41.04812 | 22.34896 | 10077 ft | 295 kts | 120° |
| 2026-05-06 12:46 | 41.03767 | 22.37250 | 10071 ft | 295 kts | 120° |
| 2026-05-06 12:46 | 41.02737 | 22.39571 | 10068 ft | 295 kts | 120° |
| 2026-05-06 12:46 | 41.01695 | 22.41915 | 10059 ft | 295 kts | 120° |
| 2026-05-06 12:47 | 41.00655 | 22.44255 | 10052 ft | 295 kts | 120° |
| 2026-05-06 12:47 | 40.99604 | 22.46616 | 10046 ft | 295 kts | 120° |
| 2026-05-06 12:47 | 40.98570 | 22.48939 | 10027 ft | 295 kts | 121° |
| 2026-05-06 12:47 | 40.97522 | 22.51289 | 10030 ft | 295 kts | 121° |
| 2026-05-06 12:48 | 40.96480 | 22.53623 | 10020 ft | 296 kts | 121° |
| 2026-05-06 12:48 | 40.95437 | 22.55960 | 9520 ft | 302 kts | 121° |
| 2026-05-06 12:48 | 40.94371 | 22.58344 | 8904 ft | 300 kts | 121° |
| 2026-05-06 12:48 | 40.93318 | 22.60700 | 8288 ft | 295 kts | 121° |
| 2026-05-06 12:49 | 40.92286 | 22.63007 | 7681 ft | 290 kts | 121° |
| 2026-05-06 12:49 | 40.91274 | 22.65268 | 7068 ft | 284 kts | 121° |
| 2026-05-06 12:49 | 40.90273 | 22.67504 | 6457 ft | 279 kts | 121° |
| 2026-05-06 12:49 | 40.89288 | 22.69702 | 5847 ft | 274 kts | 121° |
| 2026-05-06 12:50 | 40.88325 | 22.71849 | 5248 ft | 270 kts | 122° |
| 2026-05-06 12:50 | 40.87374 | 22.73967 | 4638 ft | 267 kts | 122° |
| 2026-05-06 12:50 | 40.86445 | 22.76034 | 4175 ft | 257 kts | 122° |
| 2026-05-06 12:50 | 40.85553 | 22.78017 | 3994 ft | 240 kts | 121° |
| 2026-05-06 12:51 | 40.84728 | 22.79853 | 3982 ft | 224 kts | 122° |
| 2026-05-06 12:51 | 40.83972 | 22.81531 | 4056 ft | 203 kts | 122° |
| 2026-05-06 12:51 | 40.83178 | 22.82959 | 4009 ft | 184 kts | 132° |
| 2026-05-06 12:51 | 40.82311 | 22.84065 | 3961 ft | 164 kts | 142° |
| 2026-05-06 12:52 | 40.81410 | 22.84917 | 3965 ft | 158 kts | 148° |
| 2026-05-06 12:52 | 40.80474 | 22.85719 | 3980 ft | 159 kts | 148° |
| 2026-05-06 12:52 | 40.79545 | 22.86510 | 3987 ft | 158 kts | 148° |
| 2026-05-06 12:52 | 40.78617 | 22.87302 | 3993 ft | 158 kts | 148° |
| 2026-05-06 12:53 | 40.77689 | 22.88096 | 3990 ft | 159 kts | 147° |
| 2026-05-06 12:53 | 40.76737 | 22.88825 | 3986 ft | 159 kts | 155° |
| 2026-05-06 12:53 | 40.75720 | 22.89374 | 3983 ft | 159 kts | 161° |
| 2026-05-06 12:53 | 40.74657 | 22.89816 | 3982 ft | 158 kts | 164° |
| 2026-05-06 12:54 | 40.73599 | 22.90202 | 3959 ft | 158 kts | 165° |
| 2026-05-06 12:54 | 40.72546 | 22.90563 | 3763 ft | 157 kts | 166° |
| 2026-05-06 12:54 | 40.71484 | 22.90912 | 3555 ft | 156 kts | 166° |
| 2026-05-06 12:54 | 40.70428 | 22.91252 | 3359 ft | 156 kts | 166° |
| 2026-05-06 12:55 | 40.69387 | 22.91582 | 3164 ft | 155 kts | 167° |
| 2026-05-06 12:55 | 40.68335 | 22.91914 | 2968 ft | 155 kts | 167° |
| 2026-05-06 12:55 | 40.67278 | 22.92246 | 2766 ft | 155 kts | 167° |
| 2026-05-06 12:55 | 40.66237 | 22.92573 | 2576 ft | 153 kts | 167° |
| 2026-05-06 12:56 | 40.65200 | 22.92900 | 2388 ft | 150 kts | 167° |
| 2026-05-06 12:56 | 40.64193 | 22.93218 | 2185 ft | 149 kts | 166° |
| 2026-05-06 12:56 | 40.63189 | 22.93535 | 1987 ft | 148 kts | 166° |
| 2026-05-06 12:56 | 40.62187 | 22.93852 | 1791 ft | 147 kts | 167° |
| 2026-05-06 12:57 | 40.61187 | 22.94169 | 1599 ft | 147 kts | 167° |
| 2026-05-06 12:57 | 40.60196 | 22.94475 | 1397 ft | 146 kts | 167° |
| 2026-05-06 12:57 | 40.59206 | 22.94784 | 1208 ft | 147 kts | 167° |
| 2026-05-06 12:57 | 40.58201 | 22.95107 | 1031 ft | 147 kts | 166° |
| 2026-05-06 12:58 | 40.57200 | 22.95431 | 856 ft | 147 kts | 167° |
| 2026-05-06 12:58 | 40.56212 | 22.95747 | 673 ft | 147 kts | 166° |
| 2026-05-06 12:58 | 40.55210 | 22.96062 | 486 ft | 148 kts | 168° |
| 2026-05-06 12:58 | 40.54202 | 22.96383 | 294 ft | 149 kts | 165° |
| 2026-05-06 12:59 | 40.53186 | 22.96705 | 82 ft | 149 kts | 167° |
| 2026-05-06 12:59 | 40.52232 | 22.97007 | 37 ft | 130 kts | 168° |
| 2026-05-06 12:59 | 40.51287 | 22.97295 | 406 ft | 152 kts | 167° |
| 2026-05-06 12:59 | 40.50232 | 22.97634 | 1075 ft | 163 kts | 166° |
| 2026-05-06 13:00 | 40.49124 | 22.97990 | 1885 ft | 166 kts | 166° |
| 2026-05-06 13:00 | 40.47979 | 22.98361 | 2456 ft | 178 kts | 165° |
| 2026-05-06 13:00 | 40.46732 | 22.98785 | 2937 ft | 194 kts | 165° |
| 2026-05-06 13:00 | 40.45369 | 22.99247 | 3360 ft | 213 kts | 165° |
| 2026-05-06 13:01 | 40.43869 | 22.99746 | 3431 ft | 229 kts | 166° |
| 2026-05-06 13:01 | 40.42305 | 23.00264 | 3453 ft | 231 kts | 166° |
| 2026-05-06 13:01 | 40.40738 | 23.00792 | 3473 ft | 231 kts | 165° |
| 2026-05-06 13:01 | 40.39186 | 23.01319 | 3485 ft | 230 kts | 165° |
| 2026-05-06 13:02 | 40.37638 | 23.01846 | 3481 ft | 230 kts | 165° |
| 2026-05-06 13:02 | 40.36083 | 23.02377 | 3484 ft | 230 kts | 165° |
| 2026-05-06 13:02 | 40.34528 | 23.02906 | 3486 ft | 230 kts | 165° |
| 2026-05-06 13:02 | 40.32987 | 23.03431 | 3491 ft | 230 kts | 165° |
| 2026-05-06 13:03 | 40.31435 | 23.03959 | 3482 ft | 231 kts | 166° |
| 2026-05-06 13:03 | 40.29841 | 23.04130 | 3467 ft | 232 kts | 190° |
| 2026-05-06 13:03 | 40.28359 | 23.03314 | 3475 ft | 233 kts | 217° |
| 2026-05-06 13:03 | 40.27305 | 23.01710 | 3474 ft | 235 kts | 243° |
| 2026-05-06 13:04 | 40.26894 | 22.99657 | 3477 ft | 236 kts | 266° |
| 2026-05-06 13:04 | 40.26852 | 22.97527 | 3576 ft | 230 kts | 269° |
| 2026-05-06 13:04 | 40.26891 | 22.95431 | 3520 ft | 230 kts | 272° |
| 2026-05-06 13:04 | 40.27021 | 22.93373 | 3487 ft | 221 kts | 275° |
| 2026-05-06 13:05 | 40.27232 | 22.91441 | 3463 ft | 215 kts | 278° |
| 2026-05-06 13:05 | 40.27532 | 22.89504 | 3444 ft | 215 kts | 282° |
| 2026-05-06 13:05 | 40.27915 | 22.87609 | 3465 ft | 215 kts | 285° |
| 2026-05-06 13:05 | 40.28384 | 22.85752 | 3473 ft | 216 kts | 289° |
| 2026-05-06 13:06 | 40.28937 | 22.83928 | 3475 ft | 216 kts | 292° |
| 2026-05-06 13:06 | 40.29576 | 22.82141 | 3466 ft | 216 kts | 296° |
| 2026-05-06 13:06 | 40.30292 | 22.80415 | 3464 ft | 217 kts | 299° |
| 2026-05-06 13:06 | 40.31091 | 22.78737 | 3459 ft | 218 kts | 303° |
| 2026-05-06 13:07 | 40.31970 | 22.77117 | 3466 ft | 217 kts | 307° |
| 2026-05-06 13:07 | 40.32918 | 22.75577 | 3474 ft | 218 kts | 310° |
| 2026-05-06 13:07 | 40.33944 | 22.74102 | 3490 ft | 217 kts | 314° |
| 2026-05-06 13:07 | 40.35020 | 22.72731 | 3480 ft | 217 kts | 317° |
| 2026-05-06 13:08 | 40.36160 | 22.71444 | 3468 ft | 217 kts | 321° |
| 2026-05-06 13:08 | 40.37375 | 22.70230 | 3469 ft | 217 kts | 324° |
| 2026-05-06 13:08 | 40.38619 | 22.69136 | 3466 ft | 217 kts | 328° |
| 2026-05-06 13:08 | 40.39931 | 22.68126 | 3459 ft | 218 kts | 331° |
| 2026-05-06 13:09 | 40.41277 | 22.67227 | 3464 ft | 218 kts | 335° |
| 2026-05-06 13:09 | 40.42671 | 22.66433 | 3466 ft | 218 kts | 339° |
| 2026-05-06 13:09 | 40.44101 | 22.65750 | 3470 ft | 218 kts | 342° |
| 2026-05-06 13:09 | 40.45550 | 22.65186 | 3470 ft | 217 kts | 346° |
| 2026-05-06 13:10 | 40.47035 | 22.64735 | 3469 ft | 217 kts | 349° |
| 2026-05-06 13:10 | 40.48521 | 22.64406 | 3472 ft | 217 kts | 353° |
| 2026-05-06 13:10 | 40.50033 | 22.64195 | 3472 ft | 217 kts | 356° |
| 2026-05-06 13:10 | 40.51537 | 22.64105 | 3473 ft | 216 kts | 360° |
| 2026-05-06 13:11 | 40.53040 | 22.64134 | 3472 ft | 216 kts | 3° |
| 2026-05-06 13:11 | 40.54549 | 22.64282 | 3472 ft | 216 kts | 7° |
| 2026-05-06 13:11 | 40.56041 | 22.64549 | 3474 ft | 216 kts | 10° |
| 2026-05-06 13:11 | 40.57513 | 22.64932 | 3477 ft | 216 kts | 14° |
| 2026-05-06 13:12 | 40.58979 | 22.65435 | 3474 ft | 216 kts | 18° |
| 2026-05-06 13:12 | 40.60406 | 22.66050 | 3474 ft | 216 kts | 21° |
| 2026-05-06 13:12 | 40.61803 | 22.66779 | 3478 ft | 216 kts | 25° |
| 2026-05-06 13:12 | 40.63173 | 22.67622 | 3473 ft | 216 kts | 28° |
| 2026-05-06 13:13 | 40.64491 | 22.68566 | 3474 ft | 216 kts | 31° |
| 2026-05-06 13:13 | 40.65763 | 22.69612 | 3479 ft | 216 kts | 34° |
| 2026-05-06 13:13 | 40.66987 | 22.70757 | 3475 ft | 215 kts | 38° |
| 2026-05-06 13:13 | 40.68151 | 22.71990 | 3475 ft | 215 kts | 42° |
| 2026-05-06 13:14 | 40.69255 | 22.73314 | 3476 ft | 214 kts | 45° |
| 2026-05-06 13:14 | 40.70285 | 22.74705 | 3478 ft | 213 kts | 49° |
| 2026-05-06 13:14 | 40.71265 | 22.76196 | 3477 ft | 213 kts | 52° |
| 2026-05-06 13:14 | 40.72169 | 22.77753 | 3478 ft | 213 kts | 55° |
| 2026-05-06 13:15 | 40.72997 | 22.79361 | 3472 ft | 213 kts | 58° |
| 2026-05-06 13:15 | 40.73760 | 22.81033 | 3471 ft | 213 kts | 62° |
| 2026-05-06 13:15 | 40.74443 | 22.82758 | 3468 ft | 213 kts | 65° |
| 2026-05-06 13:15 | 40.75047 | 22.84545 | 3469 ft | 213 kts | 69° |
| 2026-05-06 13:16 | 40.75417 | 22.86414 | 3459 ft | 212 kts | 89° |
| 2026-05-06 13:16 | 40.75108 | 22.88280 | 3455 ft | 209 kts | 121° |
| 2026-05-06 13:16 | 40.74088 | 22.89626 | 3496 ft | 208 kts | 147° |
| 2026-05-06 13:16 | 40.72793 | 22.90416 | 3485 ft | 208 kts | 161° |
| 2026-05-06 13:17 | 40.71407 | 22.90945 | 3464 ft | 202 kts | 166° |
| 2026-05-06 13:17 | 40.70090 | 22.91365 | 3346 ft | 186 kts | 167° |
| 2026-05-06 13:17 | 40.68858 | 22.91743 | 3103 ft | 178 kts | 167° |
| 2026-05-06 13:17 | 40.67666 | 22.92112 | 2859 ft | 173 kts | 167° |
| 2026-05-06 13:18 | 40.66523 | 22.92471 | 2620 ft | 164 kts | 167° |
| 2026-05-06 13:18 | 40.65440 | 22.92815 | 2394 ft | 155 kts | 167° |
| 2026-05-06 13:18 | 40.64421 | 22.93139 | 2184 ft | 147 kts | 167° |
| 2026-05-06 13:18 | 40.63438 | 22.93451 | 2018 ft | 146 kts | 167° |
| 2026-05-06 13:19 | 40.62434 | 22.93770 | 1839 ft | 146 kts | 166° |
| 2026-05-06 13:19 | 40.61450 | 22.94082 | 1664 ft | 145 kts | 166° |
| 2026-05-06 13:19 | 40.60470 | 22.94394 | 1481 ft | 144 kts | 166° |
| 2026-05-06 13:19 | 40.59502 | 22.94700 | 1292 ft | 143 kts | 167° |
| 2026-05-06 13:20 | 40.58525 | 22.95007 | 1094 ft | 145 kts | 167° |
| 2026-05-06 13:20 | 40.57539 | 22.95332 | 906 ft | 149 kts | 167° |
| 2026-05-06 13:20 | 40.56530 | 22.95642 | 729 ft | 146 kts | 168° |
| 2026-05-06 13:20 | 40.55558 | 22.95945 | 514 ft | 140 kts | 167° |
| 2026-05-06 13:21 | 40.54612 | 22.96250 | 352 ft | 142 kts | 168° |
| 2026-05-06 13:21 | 40.53648 | 22.96560 | 176 ft | 144 kts | 167° |
| 2026-05-06 13:21 | 40.52662 | 22.96873 | 22 ft | 141 kts | 167° |
| 2026-05-06 13:21 | 40.51808 | 22.97144 | 12 ft | 104 kts | 167° |
| 2026-05-06 13:22 | 40.51249 | 22.97323 | 17 ft | 65 kts | 166° |
| 2026-05-06 13:22 | 40.51012 | 22.97396 | 20 ft | 13 kts | 168° |